Time;durP1;ratioP1;P1;durP2;ratioP2;P2;SDS_P1;SDS_P2;PMS_P1;PMS_P2;Temp;Humidity;BMP_temperature;BMP_pressure;BME280_temperature;BME280_humidity;BME280_pressure;Samples;Min_cycle;Max_cycle;Signal;HPM_P1;HPM_P2
2021/09/29 00:00:00;;;;;;;5.07;3.15;;;13.30;99.90;;;;;;4936290;29;20031;-78
2021/09/29 00:02:26;;;;;;;3.47;2.65;;;13.30;99.90;;;;;;4938001;29;20259;-79
2021/09/29 00:04:51;;;;;;;5.05;3.30;;;13.30;99.90;;;;;;4935560;29;20036;-79
2021/09/29 00:07:17;;;;;;;9.13;3.38;;;13.20;99.90;;;;;;4936141;29;20027;-79
2021/09/29 00:09:43;;;;;;;7.35;3.42;;;13.30;99.90;;;;;;4936336;29;20027;-79
2021/09/29 00:12:09;;;;;;;4.57;2.80;;;13.30;99.90;;;;;;4936599;29;20456;-79
2021/09/29 00:14:35;;;;;;;7.22;3.30;;;13.30;99.90;;;;;;4936489;29;20036;-78
2021/09/29 00:17:00;;;;;;;6.50;2.83;;;13.20;99.90;;;;;;4935885;29;20030;-79
2021/09/29 00:19:26;;;;;;;5.65;2.88;;;13.20;99.90;;;;;;4935878;29;20031;-79
2021/09/29 00:21:52;;;;;;;8.18;3.22;;;13.20;99.90;;;;;;4936032;29;20071;-79
2021/09/29 00:24:17;;;;;;;6.20;3.78;;;13.20;99.90;;;;;;4936907;29;20058;-79
2021/09/29 00:26:43;;;;;;;4.57;2.90;;;13.30;99.90;;;;;;4935690;29;20208;-79
2021/09/29 00:29:09;;;;;;;7.25;3.70;;;13.30;99.90;;;;;;4935442;29;20044;-79
2021/09/29 00:31:36;;;;;;;7.20;3.20;;;13.30;99.90;;;;;;4936335;29;20051;-79
2021/09/29 00:34:22;;;;;;;4.78;2.60;;;13.40;99.90;;;;;;4936420;29;20031;-79
2021/09/29 00:36:47;;;;;;;3.35;2.63;;;13.40;99.90;;;;;;4936022;29;20388;-78
2021/09/29 00:39:14;;;;;;;7.35;3.17;;;13.40;99.90;;;;;;4935686;29;20038;-78
2021/09/29 00:41:42;;;;;;;6.57;3.35;;;13.40;99.90;;;;;;4935543;29;20039;-78
2021/09/29 00:44:08;;;;;;;5.15;3.15;;;13.50;99.90;;;;;;4935415;29;20043;-79
2021/09/29 00:46:33;;;;;;;9.05;3.55;;;13.50;99.90;;;;;;4936051;29;20019;-79
2021/09/29 00:48:59;;;;;;;5.70;3.17;;;13.50;99.90;;;;;;4934305;29;20153;-78
2021/09/29 00:51:25;;;;;;;4.25;3.28;;;13.50;99.90;;;;;;4935911;29;20392;-77
2021/09/29 00:53:52;;;;;;;6.88;3.40;;;13.50;99.90;;;;;;4934859;29;20020;-79
2021/09/29 00:56:22;;;;;;;5.18;3.03;;;13.50;99.90;;;;;;4935421;29;20027;-79
2021/09/29 00:58:48;;;;;;;5.45;3.20;;;13.50;99.90;;;;;;4935273;29;20028;-79
2021/09/29 01:01:14;;;;;;;4.18;3.05;;;13.50;99.90;;;;;;4934636;29;20490;-78
2021/09/29 01:03:41;;;;;;;5.43;3.13;;;13.40;99.90;;;;;;4935178;29;20123;-78
2021/09/29 01:06:13;;;;;;;5.22;3.20;;;13.40;99.90;;;;;;4935301;29;20881;-78
2021/09/29 01:08:43;;;;;;;7.38;3.55;;;13.40;99.90;;;;;;4934611;29;20032;-79
2021/09/29 01:11:19;;;;;;;4.55;3.70;;;13.40;99.90;;;;;;4935047;29;20051;-79
2021/09/29 01:14:00;;;;;;;4.78;3.20;;;13.40;99.90;;;;;;4936565;29;20032;-79
2021/09/29 01:16:27;;;;;;;4.30;3.10;;;13.50;99.90;;;;;;4934783;29;20480;-78
2021/09/29 01:18:57;;;;;;;5.47;3.55;;;13.50;99.90;;;;;;4935214;29;20020;-78
2021/09/29 01:21:31;;;;;;;6.82;3.83;;;13.50;99.90;;;;;;4935732;29;20020;-79
2021/09/29 01:24:06;;;;;;;6.45;3.63;;;13.50;99.90;;;;;;4933980;29;20042;-78
2021/09/29 01:26:36;;;;;;;5.75;3.33;;;13.50;99.90;;;;;;4935055;29;20035;-78
2021/09/29 01:29:16;;;;;;;8.40;4.18;;;13.50;99.90;;;;;;4933833;29;20056;-77
2021/09/29 01:31:43;;;;;;;3.65;3.30;;;13.50;99.90;;;;;;4935183;29;20126;-79
2021/09/29 01:34:10;;;;;;;4.70;3.70;;;13.40;99.90;;;;;;4935908;29;20027;-78
2021/09/29 01:36:37;;;;;;;4.60;3.72;;;13.40;99.90;;;;;;4934442;29;20111;-77
2021/09/29 01:39:07;;;;;;;4.93;3.67;;;13.30;99.90;;;;;;4934467;29;20039;-78
2021/09/29 01:41:33;;;;;;;5.85;3.75;;;13.30;99.90;;;;;;4934916;29;20024;-78
2021/09/29 01:43:59;;;;;;;7.97;3.80;;;13.30;99.90;;;;;;4934445;29;20140;-78
2021/09/29 01:46:26;;;;;;;5.45;3.72;;;13.30;99.90;;;;;;4934821;29;20515;-78
2021/09/29 01:49:23;;;;;;;7.93;4.13;;;13.20;99.90;;;;;;4934468;29;20468;-79
2021/09/29 01:51:51;;;;;;;5.45;3.60;;;13.20;99.90;;;;;;4935079;29;20496;-80
2021/09/29 01:54:19;;;;;;;6.80;4.43;;;13.20;99.90;;;;;;4934225;29;20114;-79
2021/09/29 01:56:46;;;;;;;4.82;3.78;;;13.20;99.90;;;;;;4935471;29;20406;-80
2021/09/29 01:59:12;;;;;;;5.40;3.80;;;13.10;99.90;;;;;;4933611;29;20075;-80
2021/09/29 02:01:39;;;;;;;6.28;3.92;;;13.10;99.90;;;;;;4934357;29;20484;-80
2021/09/29 02:04:06;;;;;;;4.95;3.13;;;13.10;99.90;;;;;;4934699;29;20027;-80
2021/09/29 02:06:42;;;;;;;5.07;3.85;;;13.10;99.90;;;;;;4934420;29;20051;-79
2021/09/29 02:09:08;;;;;;;6.97;3.75;;;13.00;99.90;;;;;;4933758;29;20034;-80
2021/09/29 02:11:33;;;;;;;7.63;3.65;;;13.00;99.90;;;;;;4933754;29;20023;-78
2021/09/29 02:13:59;;;;;;;8.32;4.00;;;13.00;99.90;;;;;;4933650;29;20016;-79
2021/09/29 02:16:25;;;;;;;6.07;3.92;;;13.00;99.90;;;;;;4935801;29;20075;-79
2021/09/29 02:18:50;;;;;;;5.63;3.40;;;13.00;99.90;;;;;;4932653;29;20028;-79
2021/09/29 02:21:16;;;;;;;7.30;4.18;;;13.00;99.90;;;;;;4933862;29;20403;-79
2021/09/29 02:23:41;;;;;;;5.80;4.00;;;13.00;99.90;;;;;;4933712;29;20031;-80
2021/09/29 02:26:07;;;;;;;6.85;4.25;;;12.90;99.90;;;;;;4933056;29;20476;-79
2021/09/29 02:28:32;;;;;;;6.82;4.25;;;13.00;99.90;;;;;;4933849;29;20039;-80
2021/09/29 02:30:58;;;;;;;6.75;4.22;;;12.90;99.90;;;;;;4934635;29;20038;-79
2021/09/29 02:33:23;;;;;;;5.50;4.20;;;12.90;99.90;;;;;;4933573;29;20361;-80
2021/09/29 02:35:49;;;;;;;6.13;3.83;;;12.90;99.90;;;;;;4933862;29;20083;-80
2021/09/29 02:38:14;;;;;;;5.68;3.80;;;12.80;99.90;;;;;;4933342;29;20024;-80
2021/09/29 02:40:41;;;;;;;5.55;3.88;;;12.80;99.90;;;;;;4934131;29;20397;-79
2021/09/29 02:43:07;;;;;;;8.75;4.22;;;12.80;99.90;;;;;;4933118;29;20063;-79
2021/09/29 02:45:33;;;;;;;6.45;4.20;;;12.70;99.90;;;;;;4934998;29;20032;-79
2021/09/29 02:47:58;;;;;;;6.82;4.03;;;12.70;99.90;;;;;;4932502;29;20016;-79
2021/09/29 02:50:24;;;;;;;6.80;4.55;;;12.70;99.90;;;;;;4934784;29;20031;-80
2021/09/29 02:52:50;;;;;;;7.38;4.45;;;12.70;99.90;;;;;;4933357;29;20019;-80
2021/09/29 02:55:15;;;;;;;6.47;4.28;;;12.70;99.90;;;;;;4932479;29;20050;-79
2021/09/29 02:57:41;;;;;;;5.07;3.67;;;12.60;99.90;;;;;;4933373;29;20072;-79
2021/09/29 03:00:07;;;;;;;5.55;3.80;;;12.60;99.90;;;;;;4933331;29;20035;-80
2021/09/29 03:02:33;;;;;;;5.80;4.05;;;12.60;99.90;;;;;;4932917;29;20016;-79
2021/09/29 03:04:58;;;;;;;7.30;4.63;;;12.50;99.90;;;;;;4934000;29;20046;-79
2021/09/29 03:07:24;;;;;;;4.75;3.20;;;12.50;99.90;;;;;;4934197;29;20043;-79
2021/09/29 03:09:49;;;;;;;5.38;3.65;;;12.50;99.90;;;;;;4933080;29;20032;-79
2021/09/29 03:12:15;;;;;;;4.57;3.90;;;12.50;99.90;;;;;;4934410;29;20062;-79
2021/09/29 03:14:41;;;;;;;6.95;3.78;;;12.50;99.90;;;;;;4932545;29;20089;-79
2021/09/29 03:17:06;;;;;;;4.18;3.67;;;12.50;99.90;;;;;;4934275;29;20034;-79
2021/09/29 03:19:32;;;;;;;6.50;4.00;;;12.40;99.90;;;;;;4933361;29;20047;-79
2021/09/29 03:22:00;;;;;;;5.65;3.95;;;12.40;99.90;;;;;;4932153;29;20058;-79
2021/09/29 03:24:26;;;;;;;6.90;4.43;;;12.40;99.90;;;;;;4933202;29;20091;-79
2021/09/29 03:26:51;;;;;;;5.15;4.10;;;12.40;99.90;;;;;;4933121;29;20032;-79
2021/09/29 03:29:17;;;;;;;4.97;4.10;;;12.40;99.90;;;;;;4933057;29;20062;-79
2021/09/29 03:31:43;;;;;;;5.20;3.50;;;12.40;99.90;;;;;;4934513;29;20437;-79
2021/09/29 03:34:09;;;;;;;5.47;3.70;;;12.40;99.90;;;;;;4936943;29;20116;-79
2021/09/29 03:36:34;;;;;;;6.72;3.88;;;12.40;99.90;;;;;;4937903;29;20028;-79
2021/09/29 03:39:00;;;;;;;5.28;3.80;;;12.40;99.90;;;;;;4937405;29;20071;-79
2021/09/29 03:41:28;;;;;;;7.40;4.93;;;12.40;99.90;;;;;;4938639;29;20024;-79
2021/09/29 03:43:53;;;;;;;5.82;4.13;;;12.40;99.90;;;;;;4936167;29;20488;-79
2021/09/29 03:46:20;;;;;;;6.80;4.25;;;12.50;99.90;;;;;;4936859;29;20119;-79
2021/09/29 03:48:46;;;;;;;6.38;4.28;;;12.50;99.90;;;;;;4938074;29;20143;-79
2021/09/29 03:51:11;;;;;;;5.03;4.18;;;12.50;99.90;;;;;;4937701;29;20031;-79
2021/09/29 03:53:37;;;;;;;8.18;4.30;;;12.50;99.90;;;;;;4936796;29;20035;-79
2021/09/29 03:56:03;;;;;;;7.90;5.13;;;12.50;99.90;;;;;;4935948;29;20031;-79
2021/09/29 03:58:29;;;;;;;7.43;4.63;;;12.50;99.90;;;;;;4936085;29;20032;-79
2021/09/29 04:00:54;;;;;;;5.20;4.43;;;12.50;99.90;;;;;;4936478;29;20028;-79
2021/09/29 04:03:20;;;;;;;9.68;4.70;;;12.50;99.90;;;;;;4936565;29;20094;-79
2021/09/29 04:05:47;;;;;;;6.57;4.50;;;12.50;99.90;;;;;;4937096;29;20064;-79
2021/09/29 04:08:13;;;;;;;6.32;4.40;;;12.60;99.90;;;;;;4936054;29;20034;-79
2021/09/29 04:10:38;;;;;;;6.20;4.00;;;12.60;99.90;;;;;;4936790;29;20032;-79
2021/09/29 04:13:05;;;;;;;6.25;4.25;;;12.70;99.90;;;;;;4936225;29;20023;-79
2021/09/29 04:15:32;;;;;;;5.45;4.50;;;12.70;99.90;;;;;;4936713;29;20427;-80
2021/09/29 04:17:58;;;;;;;5.90;4.22;;;12.80;99.90;;;;;;4935063;29;20150;-80
2021/09/29 04:20:23;;;;;;;4.50;3.83;;;12.80;99.90;;;;;;4937677;29;20107;-79
2021/09/29 04:22:49;;;;;;;7.65;4.20;;;12.80;99.90;;;;;;4936017;29;20079;-79
2021/09/29 04:25:14;;;;;;;5.70;4.47;;;12.80;99.90;;;;;;4935168;29;20047;-79
2021/09/29 04:27:40;;;;;;;4.97;3.92;;;12.90;99.90;;;;;;4935690;29;20543;-80
2021/09/29 04:30:07;;;;;;;7.13;4.78;;;12.90;99.90;;;;;;4935897;29;20093;-80
2021/09/29 04:32:33;;;;;;;6.43;4.00;;;12.90;99.90;;;;;;4936953;29;20035;-80
2021/09/29 04:34:58;;;;;;;6.63;3.97;;;12.90;99.90;;;;;;4936772;29;20118;-79
2021/09/29 04:37:24;;;;;;;12.20;4.20;;;13.00;99.90;;;;;;4936218;29;20532;-79
2021/09/29 04:39:50;;;;;;;6.20;4.18;;;13.00;99.90;;;;;;4936401;29;20106;-79
2021/09/29 04:42:15;;;;;;;5.25;4.40;;;13.00;99.90;;;;;;4934947;29;20058;-79
2021/09/29 04:44:41;;;;;;;5.82;4.13;;;13.00;99.90;;;;;;4936995;29;20086;-79
2021/09/29 04:47:06;;;;;;;5.20;3.63;;;13.00;99.90;;;;;;4935026;29;20484;-79
2021/09/29 04:49:32;;;;;;;5.15;3.78;;;13.00;99.90;;;;;;4935703;29;20027;-78
2021/09/29 04:51:58;;;;;;;6.43;4.20;;;13.00;99.90;;;;;;4936360;29;20024;-78
2021/09/29 04:54:23;;;;;;;5.53;3.92;;;13.00;99.90;;;;;;4935095;29;20404;-79
2021/09/29 04:56:51;;;;;;;5.47;4.15;;;13.00;99.90;;;;;;4936589;29;20028;-78
2021/09/29 04:59:17;;;;;;;5.03;3.92;;;13.00;99.90;;;;;;4935171;29;20027;-79
2021/09/29 05:01:44;;;;;;;4.82;3.50;;;12.90;99.90;;;;;;4934944;29;20154;-79
2021/09/29 05:04:09;;;;;;;7.75;4.53;;;12.90;99.90;;;;;;4936430;29;20480;-79
2021/09/29 05:06:36;;;;;;;4.10;3.70;;;12.90;99.90;;;;;;4935647;29;20361;-78
2021/09/29 05:09:03;;;;;;;5.82;3.78;;;12.90;99.90;;;;;;4934263;29;20024;-80
2021/09/29 05:11:34;;;;;;;5.50;4.00;;;12.80;99.90;;;;;;4935648;29;20024;-79
2021/09/29 05:14:00;;;;;;;5.90;3.70;;;12.90;99.90;;;;;;4934150;29;20024;-78
2021/09/29 05:16:26;;;;;;;7.05;4.22;;;12.90;99.90;;;;;;4936706;29;20468;-78
2021/09/29 05:18:52;;;;;;;6.35;3.70;;;12.90;99.90;;;;;;4934993;29;20028;-82
2021/09/29 05:21:17;;;;;;;8.45;4.70;;;12.90;99.90;;;;;;4934338;29;20491;-79
2021/09/29 05:23:43;;;;;;;4.40;3.35;;;13.00;99.90;;;;;;4935224;29;20028;-83
2021/09/29 05:26:09;;;;;;;5.47;4.13;;;13.00;99.90;;;;;;4936274;29;20051;-85
2021/09/29 05:28:37;;;;;;;5.13;3.38;;;13.00;99.90;;;;;;4935057;29;20122;-78
2021/09/29 05:31:03;;;;;;;5.35;3.67;;;13.00;99.90;;;;;;4935892;29;20028;-78
2021/09/29 05:33:29;;;;;;;6.40;3.60;;;13.00;99.90;;;;;;4935083;29;20032;-78
2021/09/29 05:35:54;;;;;;;5.53;3.75;;;13.00;99.90;;;;;;4934805;29;20083;-78
2021/09/29 05:38:20;;;;;;;4.68;3.67;;;13.00;99.90;;;;;;4936173;29;20034;-77
2021/09/29 05:40:46;;;;;;;5.05;3.83;;;13.00;99.90;;;;;;4934722;29;20103;-75
2021/09/29 05:43:12;;;;;;;6.05;3.40;;;13.00;99.90;;;;;;4929912;29;20090;-78
2021/09/29 05:45:37;;;;;;;8.52;4.10;;;13.00;99.90;;;;;;4951892;29;20043;-78
2021/09/29 05:48:03;;;;;;;4.50;3.50;;;13.10;99.90;;;;;;4934791;29;20028;-79
2021/09/29 05:50:29;;;;;;;8.23;3.85;;;13.10;99.90;;;;;;4934737;29;20027;-77
2021/09/29 05:52:55;;;;;;;6.07;3.55;;;13.10;99.90;;;;;;4934902;29;20035;-79
2021/09/29 05:55:21;;;;;;;3.53;2.80;;;13.10;99.90;;;;;;4933973;29;20027;-77
2021/09/29 05:57:46;;;;;;;4.35;3.22;;;13.10;99.90;;;;;;4933261;29;20034;-75
2021/09/29 06:00:13;;;;;;;6.90;4.05;;;13.10;99.90;;;;;;4940564;28;20055;-76
2021/09/29 06:02:39;;;;;;;4.75;3.00;;;13.20;99.90;;;;;;4935840;29;20360;-81
2021/09/29 06:05:05;;;;;;;4.60;3.38;;;13.20;99.90;;;;;;4933018;29;20028;-77
2021/09/29 06:07:31;;;;;;;6.45;3.67;;;13.20;99.90;;;;;;4933768;29;20042;-80
2021/09/29 06:09:57;;;;;;;6.88;3.42;;;13.20;99.90;;;;;;4934945;29;20489;-78
2021/09/29 06:12:22;;;;;;;5.70;3.45;;;13.20;99.90;;;;;;4932362;29;20023;-79
2021/09/29 06:14:53;;;;;;;5.03;3.42;;;13.20;99.90;;;;;;4933721;29;20032;-77
2021/09/29 06:17:35;;;;;;;5.27;3.27;;;13.30;99.90;;;;;;4932976;29;20020;-79
2021/09/29 06:20:03;;;;;;;3.53;3.17;;;13.30;99.90;;;;;;4933872;29;20028;-78
2021/09/29 06:22:28;;;;;;;4.57;3.25;;;13.30;99.90;;;;;;4935315;29;20480;-79
2021/09/29 06:24:54;;;;;;;4.40;3.08;;;13.30;99.90;;;;;;4933341;29;20039;-78
2021/09/29 06:27:19;;;;;;;4.43;2.85;;;13.30;99.90;;;;;;4934349;29;20468;-78
2021/09/29 06:29:45;;;;;;;4.45;2.90;;;13.30;99.90;;;;;;4935053;29;20449;-78
2021/09/29 06:32:11;;;;;;;4.68;3.28;;;13.40;99.90;;;;;;4934467;29;20031;-80
2021/09/29 06:34:36;;;;;;;3.45;2.60;;;13.40;99.90;;;;;;4933980;29;20098;-75
2021/09/29 06:37:02;;;;;;;8.13;3.00;;;13.40;99.90;;;;;;4934866;29;20066;-78
2021/09/29 06:39:28;;;;;;;4.97;2.97;;;13.40;99.90;;;;;;4933137;29;20048;-77
2021/09/29 06:41:54;;;;;;;3.50;2.70;;;13.40;99.90;;;;;;4933346;29;20452;-78
2021/09/29 06:44:19;;;;;;;4.30;2.50;;;13.40;99.90;;;;;;4933617;29;20047;-79
2021/09/29 06:46:45;;;;;;;3.13;2.67;;;13.50;99.90;;;;;;4932911;29;20016;-77
2021/09/29 06:49:10;;;;;;;4.38;3.00;;;13.50;99.90;;;;;;4933395;29;20047;-77
2021/09/29 06:51:36;;;;;;;4.63;3.03;;;13.50;99.90;;;;;;4933712;29;20119;-78
2021/09/29 06:54:02;;;;;;;5.68;2.75;;;13.50;99.90;;;;;;4933849;29;20031;-80
2021/09/29 06:56:27;;;;;;;5.10;2.95;;;13.50;99.90;;;;;;4933473;29;20034;-80
2021/09/29 06:58:53;;;;;;;3.95;2.60;;;13.50;99.90;;;;;;4933228;29;20162;-77
2021/09/29 07:01:20;;;;;;;2.67;2.38;;;13.60;99.90;;;;;;4933017;29;20028;-79
2021/09/29 07:03:46;;;;;;;5.40;2.63;;;13.60;99.90;;;;;;4933225;29;20035;-80
2021/09/29 07:06:12;;;;;;;3.25;2.60;;;13.70;99.90;;;;;;4934349;29;20038;-79
2021/09/29 07:08:38;;;;;;;3.08;2.40;;;13.70;99.90;;;;;;4933650;28;20028;-79
2021/09/29 07:11:04;;;;;;;2.80;2.55;;;13.70;99.90;;;;;;4933072;29;20062;-79
2021/09/29 07:13:30;;;;;;;3.97;2.50;;;13.70;99.90;;;;;;4932974;29;20380;-78
2021/09/29 07:15:56;;;;;;;2.70;2.08;;;13.70;99.90;;;;;;4932967;29;20023;-78
2021/09/29 07:18:27;;;;;;;3.45;2.72;;;13.70;99.90;;;;;;4933155;29;20024;-79
2021/09/29 07:20:53;;;;;;;4.68;2.88;;;13.70;99.90;;;;;;4932535;29;20148;-78
2021/09/29 07:23:21;;;;;;;5.25;3.15;;;13.80;99.90;;;;;;4934592;29;20106;-80
2021/09/29 07:25:47;;;;;;;5.03;3.08;;;13.80;99.90;;;;;;4934160;29;20039;-80
2021/09/29 07:28:15;;;;;;;5.30;2.78;;;13.80;99.90;;;;;;4932124;29;20036;-79
2021/09/29 07:30:42;;;;;;;5.40;3.00;;;13.80;99.90;;;;;;4933068;29;20110;-80
2021/09/29 07:33:11;;;;;;;3.53;2.60;;;13.70;99.90;;;;;;4932731;29;20556;-79
2021/09/29 07:35:38;;;;;;;9.27;2.45;;;13.70;99.90;;;;;;4932635;29;20038;-77
2021/09/29 07:38:04;;;;;;;6.70;2.85;;;13.70;99.90;;;;;;4934096;29;20035;-79
2021/09/29 07:40:30;;;;;;;3.60;2.47;;;13.70;99.90;;;;;;4934447;29;20020;-79
2021/09/29 07:42:56;;;;;;;4.15;2.53;;;13.70;99.90;;;;;;4933101;29;20028;-79
2021/09/29 07:45:23;;;;;;;4.30;2.35;;;13.70;99.90;;;;;;4932961;29;20039;-77
2021/09/29 07:47:49;;;;;;;3.35;2.40;;;13.70;99.90;;;;;;4932681;29;20114;-77
2021/09/29 07:50:16;;;;;;;4.13;2.85;;;13.80;99.90;;;;;;4933684;29;20461;-77
2021/09/29 07:52:43;;;;;;;4.25;2.40;;;13.80;99.90;;;;;;4934385;29;20548;-79
2021/09/29 07:55:09;;;;;;;4.78;2.45;;;13.80;99.90;;;;;;4932589;29;20059;-79
2021/09/29 07:57:35;;;;;;;2.58;2.38;;;13.80;99.90;;;;;;4932084;29;20396;-77
2021/09/29 08:00:01;;;;;;;2.88;2.22;;;13.80;99.90;;;;;;4932448;29;20035;-79
2021/09/29 08:02:26;;;;;;;4.00;2.20;;;13.80;99.90;;;;;;4933027;29;20028;-79
2021/09/29 08:04:53;;;;;;;3.53;2.40;;;13.80;99.90;;;;;;4933319;29;20042;-78
2021/09/29 08:07:18;;;;;;;4.47;2.67;;;13.80;99.90;;;;;;4934213;29;20043;-79
2021/09/29 08:09:44;;;;;;;3.72;2.00;;;13.80;99.90;;;;;;4932643;29;20118;-76
2021/09/29 08:12:10;;;;;;;3.03;2.30;;;13.80;99.90;;;;;;4932061;29;20019;-77
2021/09/29 08:14:39;;;;;;;6.03;2.58;;;13.80;99.90;;;;;;4932879;29;20131;-77
2021/09/29 08:17:06;;;;;;;8.15;2.78;;;13.80;99.90;;;;;;4932343;29;20075;-78
2021/09/29 08:19:32;;;;;;;4.25;2.15;;;13.80;99.90;;;;;;4936366;29;20118;-77
2021/09/29 08:21:58;;;;;;;5.00;2.20;;;13.90;99.90;;;;;;4935873;29;20059;-79
2021/09/29 08:24:34;;;;;;;5.38;2.45;;;13.90;99.90;;;;;;4935731;29;20064;-81
2021/09/29 08:29:42;;;;;;;5.97;2.85;;;14.00;99.90;;;;;;4937394;29;20413;-78
2021/09/29 08:34:54;;;;;;;3.92;2.90;;;14.00;99.90;;;;;;4937584;29;20028;-77
2021/09/29 08:37:45;;;;;;;3.55;2.70;;;14.00;99.90;;;;;;4935967;29;20019;-77
2021/09/29 08:40:12;;;;;;;4.20;2.70;;;14.00;99.90;;;;;;4935923;29;20036;-75
2021/09/29 08:45:32;;;;;;;2.83;2.28;;;14.00;99.90;;;;;;4936526;29;20068;-75
2021/09/29 08:48:14;;;;;;;4.15;3.05;;;14.00;99.90;;;;;;4936456;29;20031;-77
2021/09/29 09:18:30;;;;;;;4.35;2.75;;;14.10;99.90;;;;;;4936961;29;20503;-78
2021/09/29 09:21:05;;;;;;;6.43;2.80;;;14.10;99.90;;;;;;4934034;29;20028;-76
2021/09/29 09:23:40;;;;;;;4.72;3.00;;;14.00;99.90;;;;;;4935154;29;20023;-76
2021/09/29 09:26:16;;;;;;;4.22;3.33;;;14.10;99.90;;;;;;4934889;29;20358;-77
2021/09/29 09:28:43;;;;;;;4.75;3.17;;;14.10;99.90;;;;;;4935460;29;20082;-76
2021/09/29 09:31:15;;;;;;;5.03;3.65;;;14.10;99.90;;;;;;4937243;29;20023;-77
2021/09/29 09:33:53;;;;;;;3.75;2.67;;;14.20;99.90;;;;;;4934830;29;20066;-76
2021/09/29 09:36:33;;;;;;;3.35;2.83;;;14.10;99.90;;;;;;4934400;29;20024;-77
2021/09/29 09:39:03;;;;;;;4.57;2.53;;;14.00;99.90;;;;;;4934452;29;20420;-77
2021/09/29 09:41:28;;;;;;;4.00;3.10;;;14.00;99.90;;;;;;4935709;29;20379;-76
2021/09/29 09:43:59;;;;;;;3.42;3.10;;;13.90;99.90;;;;;;4935350;29;20032;-76
2021/09/29 09:46:25;;;;;;;3.22;2.78;;;13.90;99.90;;;;;;4934885;29;20114;-76
2021/09/29 09:48:59;;;;;;;5.13;3.53;;;13.90;99.90;;;;;;4934870;29;20055;-76
2021/09/29 09:51:25;;;;;;;4.13;2.83;;;13.90;99.90;;;;;;4934843;29;20035;-77
2021/09/29 09:53:53;;;;;;;4.95;2.55;;;13.80;99.90;;;;;;4935652;29;20035;-78
2021/09/29 09:56:23;;;;;;;3.55;2.50;;;13.80;99.90;;;;;;4933987;29;20042;-77
2021/09/29 09:58:51;;;;;;;2.75;2.45;;;13.60;99.90;;;;;;4935602;29;20110;-75
2021/09/29 10:01:18;;;;;;;3.00;2.30;;;13.60;99.90;;;;;;4935500;29;20023;-78
2021/09/29 10:03:44;;;;;;;3.13;2.83;;;13.50;99.90;;;;;;4933372;29;20392;-77
2021/09/29 10:06:10;;;;;;;3.58;2.72;;;13.50;99.90;;;;;;4934252;29;20024;-76
2021/09/29 10:08:36;;;;;;;3.25;2.95;;;13.50;99.90;;;;;;4935509;29;20020;-76
2021/09/29 10:11:14;;;;;;;4.53;2.90;;;13.50;99.90;;;;;;4933257;29;20058;-77
2021/09/29 10:13:55;;;;;;;3.70;2.88;;;13.40;99.90;;;;;;4934338;29;20020;-76
2021/09/29 10:27:35;;;;;;;2.75;1.90;;;13.40;99.90;;;;;;4936754;29;20087;-77
2021/09/29 10:30:13;;;;;;;2.60;2.28;;;13.40;99.90;;;;;;4936084;29;20084;-75
2021/09/29 10:32:44;;;;;;;2.53;2.05;;;13.40;99.90;;;;;;4933171;29;20024;-76
2021/09/29 10:41:03;;;;;;;3.55;1.90;;;13.40;99.90;;;;;;4934986;29;20035;-75
2021/09/29 10:46:38;;;;;;;3.97;1.92;;;13.50;99.90;;;;;;4933646;29;20070;-75
2021/09/29 11:28:08;;;;;;;2.05;1.35;;;13.40;99.90;;;;;;4954845;28;20042;-83
2021/09/29 11:30:54;;;;;;;3.53;1.73;;;13.30;99.90;;;;;;4953862;29;20046;-81
2021/09/29 11:33:29;;;;;;;1.55;1.25;;;13.30;99.90;;;;;;4953534;29;20094;-79
2021/09/29 11:38:49;;;;;;;4.68;1.90;;;13.30;99.90;;;;;;4953467;28;20122;-79
2021/09/29 11:50:02;;;;;;;2.35;1.90;;;13.20;99.90;;;;;;4914976;29;20079;-79
2021/09/29 12:09:34;;;;;;;2.13;1.33;;;13.40;99.90;;;;;;4917736;29;20043;-78
2021/09/29 12:12:19;;;;;;;1.40;1.30;;;13.50;99.90;;;;;;4931824;29;20025;-78
2021/09/29 12:14:48;;;;;;;3.83;1.50;;;13.60;99.90;;;;;;4932928;29;20024;-79
2021/09/29 12:17:22;;;;;;;1.30;1.20;;;13.60;99.90;;;;;;4934085;29;20020;-76
2021/09/29 12:19:57;;;;;;;2.65;1.50;;;13.70;99.90;;;;;;4935479;29;20480;-78
2021/09/29 12:22:24;;;;;;;1.83;1.50;;;13.90;99.90;;;;;;4939344;29;20035;-75
2021/09/29 12:24:59;;;;;;;1.60;1.50;;;14.00;99.90;;;;;;4934468;29;20393;-79
2021/09/29 12:27:47;;;;;;;1.80;1.50;;;14.00;99.90;;;;;;4935634;29;20115;-80
2021/09/29 12:30:34;;;;;;;2.30;1.52;;;13.90;99.90;;;;;;4940239;29;20105;-78
2021/09/29 12:35:37;;;;;;;3.10;1.05;;;13.80;99.90;;;;;;4937416;29;20043;-81
2021/09/29 12:38:04;;;;;;;2.80;1.10;;;13.80;99.90;;;;;;4950806;28;20051;-78
2021/09/29 12:40:33;;;;;;;1.45;1.00;;;13.70;99.90;;;;;;4951943;29;20111;-76
2021/09/29 12:43:20;;;;;;;1.92;1.00;;;13.70;99.90;;;;;;4935016;29;20032;-78
2021/09/29 12:45:49;;;;;;;2.72;1.20;;;13.70;99.90;;;;;;4950825;29;20039;-76
2021/09/29 12:48:19;;;;;;;3.35;1.10;;;13.70;99.90;;;;;;4946537;29;20117;-77
2021/09/29 12:50:59;;;;;;;2.90;1.25;;;13.70;99.90;;;;;;4955504;29;20464;-76
2021/09/29 12:53:37;;;;;;;2.72;1.15;;;13.70;99.90;;;;;;4954452;29;20023;-77
2021/09/29 12:56:07;;;;;;;3.45;1.42;;;13.80;99.90;;;;;;4955476;28;20027;-76
2021/09/29 12:58:33;;;;;;;5.18;2.25;;;13.70;99.90;;;;;;4957009;29;20502;-79
2021/09/29 13:01:00;;;;;;;3.63;1.65;;;13.70;99.90;;;;;;4954526;28;20030;-77
2021/09/29 13:03:27;;;;;;;2.95;1.45;;;13.60;99.90;;;;;;4948841;28;20129;-78
2021/09/29 13:05:54;;;;;;;2.75;1.33;;;13.50;99.90;;;;;;4934390;29;20039;-77
2021/09/29 13:08:20;;;;;;;1.70;1.40;;;13.50;99.90;;;;;;4936085;29;20058;-77
2021/09/29 13:10:46;;;;;;;3.03;1.23;;;13.50;99.90;;;;;;4935181;29;20051;-76
2021/09/29 13:13:12;;;;;;;2.42;1.70;;;13.60;99.90;;;;;;4934584;29;20099;-83
2021/09/29 13:15:44;;;;;;;3.42;1.60;;;13.70;99.90;;;;;;4938634;29;20477;-77
2021/09/29 13:21:08;;;;;;;3.95;1.60;;;13.80;99.90;;;;;;4935452;29;20146;-77
2021/09/29 13:23:45;;;;;;;3.72;1.98;;;13.90;99.90;;;;;;4935481;29;20024;-78
2021/09/29 13:37:04;;;;;;;5.00;1.95;;;14.40;99.90;;;;;;4936005;29;20127;-77
2021/09/29 13:39:30;;;;;;;3.38;1.95;;;14.40;99.90;;;;;;4935234;29;20055;-79
2021/09/29 13:41:56;;;;;;;2.83;2.00;;;14.40;99.90;;;;;;4933547;29;20052;-77
2021/09/29 13:44:26;;;;;;;6.22;2.08;;;14.40;99.90;;;;;;4934649;29;20035;-78
2021/09/29 13:46:52;;;;;;;3.80;2.05;;;14.30;99.90;;;;;;4935943;29;20030;-78
2021/09/29 13:49:20;;;;;;;3.55;1.20;;;14.40;99.90;;;;;;4933734;29;20106;-78
2021/09/29 13:51:47;;;;;;;5.47;1.52;;;14.30;99.90;;;;;;4936434;29;20020;-77
2021/09/29 13:54:18;;;;;;;7.68;1.90;;;14.30;99.90;;;;;;4934409;29;20059;-78
2021/09/29 13:56:49;;;;;;;4.90;1.30;;;14.30;99.90;;;;;;4933712;29;20063;-79
2021/09/29 14:29:28;;;;;;;2.35;1.58;;;15.10;99.90;;;;;;4934923;29;20159;-77
2021/09/29 14:34:23;;;;;;;2.05;0.90;;;15.20;99.90;;;;;;4935202;29;20032;-76
2021/09/29 14:36:48;;;;;;;20.67;15.32;;;15.40;99.90;;;;;;4934374;29;20028;-78
2021/09/29 14:39:14;;;;;;;49.92;27.33;;;15.40;99.90;;;;;;4934536;29;20031;-77
2021/09/29 14:41:40;;;;;;;47.40;29.00;;;15.40;99.90;;;;;;4935315;29;20098;-77
2021/09/29 14:44:06;;;;;;;27.58;17.25;;;15.30;99.90;;;;;;4933984;29;20036;-77
2021/09/29 14:46:32;;;;;;;3.83;2.47;;;15.30;99.90;;;;;;4935148;29;20492;-76
2021/09/29 14:48:58;;;;;;;5.95;2.70;;;15.10;99.90;;;;;;4934140;29;20024;-78
2021/09/29 14:51:24;;;;;;;12.73;5.75;;;14.70;99.90;;;;;;4934284;29;20028;-77
2021/09/29 14:53:52;;;;;;;8.38;5.05;;;14.10;99.90;;;;;;4933441;29;20012;-76
2021/09/29 14:56:19;;;;;;;5.28;3.17;;;13.60;99.90;;;;;;4933299;29;20110;-78
2021/09/29 14:58:45;;;;;;;2.70;1.70;;;13.30;99.90;;;;;;4933942;29;20023;-77
2021/09/29 15:01:11;;;;;;;2.47;1.50;;;13.10;99.90;;;;;;4934163;29;20523;-80
2021/09/29 15:03:37;;;;;;;2.85;1.20;;;13.00;99.90;;;;;;4933267;29;20020;-77
2021/09/29 15:06:03;;;;;;;16.52;2.33;;;12.90;99.90;;;;;;4932162;29;20036;-78
2021/09/29 15:08:30;;;;;;;4.28;1.63;;;12.60;99.90;;;;;;4933318;29;20492;-77
2021/09/29 15:10:56;;;;;;;7.82;2.28;;;12.40;99.90;;;;;;4932842;29;20383;-77
2021/09/29 15:13:28;;;;;;;5.43;1.70;;;12.00;99.90;;;;;;4934197;29;20019;-78
2021/09/29 15:16:04;;;;;;;3.65;1.67;;;11.80;99.90;;;;;;4934322;29;20027;-78
2021/09/29 15:46:18;;;;;;;5.53;1.50;;;11.40;99.90;;;;;;4940934;29;20078;-79
2021/09/29 15:47:47;;;;;;;2.70;1.48;;;11.00;99.90;;;;;;4937020;29;20111;-78
2021/09/29 15:50:22;;;;;;;5.28;3.42;;;11.00;99.90;;;;;;4935577;29;20037;-79
2021/09/29 16:00:59;;;;;;;4.68;2.95;;;11.00;99.90;;;;;;4926848;29;20106;-84
2021/09/29 16:03:43;;;;;;;4.90;2.03;;;11.00;99.90;;;;;;4935998;29;20020;-86
2021/09/29 16:19:37;;;;;;;12.00;4.78;;;11.10;99.90;;;;;;4937430;29;20038;-83
2021/09/29 16:35:11;;;;;;;11.70;6.95;;;10.90;99.90;;;;;;4936974;29;20043;-83
2021/09/29 16:37:37;;;;;;;6.43;4.10;;;10.90;99.90;;;;;;4934202;29;20016;-82
2021/09/29 16:40:03;;;;;;;32.85;21.85;;;10.90;99.90;;;;;;4932229;29;20035;-82
2021/09/29 16:42:28;;;;;;;57.00;33.33;;;10.90;99.90;;;;;;4932748;29;20071;-80